Time;durP1;ratioP1;P1;durP2;ratioP2;P2;SDS_P1;SDS_P2;PMS_P1;PMS_P2;Temp;Humidity;BMP_temperature;BMP_pressure;BME280_temperature;BME280_humidity;BME280_pressure;Samples;Min_cycle;Max_cycle;Signal;HPM_P1;HPM_P2
2021/07/16 00:01:32;;;;;;;6.18;3.53;;;19.80;99.90;;;;;;4960603;28;20721;-78
2021/07/16 00:03:57;;;;;;;6.85;4.22;;;19.80;99.90;;;;;;4960588;28;20729;-79
2021/07/16 00:06:23;;;;;;;6.10;3.75;;;19.80;99.90;;;;;;4957675;28;20184;-78
2021/07/16 00:08:48;;;;;;;6.00;4.40;;;19.80;99.90;;;;;;4959730;28;20173;-78
2021/07/16 00:11:14;;;;;;;9.88;5.18;;;19.90;99.90;;;;;;4957663;28;21050;-77
2021/07/16 00:13:40;;;;;;;10.80;6.40;;;20.00;99.90;;;;;;4960203;28;20770;-78
2021/07/16 00:16:05;;;;;;;8.32;5.63;;;20.00;99.90;;;;;;4957524;28;20622;-78
2021/07/16 00:18:32;;;;;;;11.38;7.03;;;20.00;99.90;;;;;;4960942;28;20647;-78
2021/07/16 00:20:58;;;;;;;15.13;7.70;;;20.10;99.90;;;;;;4958356;28;20295;-77
2021/07/16 00:23:24;;;;;;;14.00;9.05;;;20.10;99.90;;;;;;4958567;28;20260;-78
2021/07/16 00:25:49;;;;;;;18.75;11.02;;;20.00;99.90;;;;;;4958776;28;20190;-78
2021/07/16 00:28:15;;;;;;;18.92;11.35;;;20.00;99.90;;;;;;4958115;28;20209;-78
2021/07/16 00:30:41;;;;;;;17.48;10.98;;;20.00;99.90;;;;;;4956995;28;20884;-78
2021/07/16 00:33:06;;;;;;;16.55;11.50;;;20.00;99.90;;;;;;4958445;28;20570;-78
2021/07/16 00:35:32;;;;;;;16.38;10.02;;;20.10;99.90;;;;;;4959344;28;20181;-77
2021/07/16 00:37:58;;;;;;;16.73;10.20;;;20.10;99.90;;;;;;4956266;28;20240;-77
2021/07/16 00:40:25;;;;;;;17.08;10.07;;;20.10;99.90;;;;;;4959179;28;20905;-77
2021/07/16 00:42:51;;;;;;;14.85;10.00;;;20.10;99.90;;;;;;4956950;28;20656;-78
2021/07/16 00:45:17;;;;;;;17.58;10.70;;;20.00;99.90;;;;;;4957607;28;20185;-77
2021/07/16 00:47:43;;;;;;;15.73;10.20;;;20.00;99.90;;;;;;4958677;28;20563;-77
2021/07/16 00:50:13;;;;;;;13.27;9.65;;;20.00;99.90;;;;;;4957893;28;20253;-77
2021/07/16 00:52:40;;;;;;;12.75;8.73;;;20.00;99.90;;;;;;4972791;28;20438;-77
2021/07/16 00:55:07;;;;;;;13.68;9.18;;;19.90;99.90;;;;;;4948840;28;20185;-77
2021/07/16 00:57:33;;;;;;;13.25;8.48;;;19.90;99.90;;;;;;4955410;28;20209;-78
2021/07/16 00:59:59;;;;;;;16.00;9.50;;;19.90;99.90;;;;;;4948097;28;20192;-79
2021/07/16 01:02:26;;;;;;;15.30;10.00;;;19.90;99.90;;;;;;4957490;28;20547;-77
2021/07/16 01:04:52;;;;;;;16.63;10.23;;;19.90;99.90;;;;;;4957946;28;20190;-78
2021/07/16 01:07:19;;;;;;;15.57;10.18;;;19.80;99.90;;;;;;4956618;28;20285;-78
2021/07/16 01:09:49;;;;;;;14.60;9.80;;;19.80;99.90;;;;;;4962754;28;20181;-77
2021/07/16 01:12:16;;;;;;;16.98;9.82;;;19.90;99.90;;;;;;4959079;28;20179;-78
2021/07/16 01:14:42;;;;;;;13.98;9.02;;;19.90;99.90;;;;;;4957304;28;20193;-78
2021/07/16 01:17:07;;;;;;;20.95;9.45;;;19.90;99.90;;;;;;4958946;28;20741;-78
2021/07/16 01:19:50;;;;;;;16.40;9.98;;;19.90;99.90;;;;;;4957038;28;20212;-78
2021/07/16 01:22:17;;;;;;;17.27;10.82;;;19.90;99.90;;;;;;4958370;28;20209;-79
2021/07/16 01:24:43;;;;;;;17.65;10.35;;;19.90;99.90;;;;;;4957639;28;20182;-79
2021/07/16 01:27:11;;;;;;;15.25;9.05;;;20.00;99.90;;;;;;4957285;28;21119;-78
2021/07/16 01:29:36;;;;;;;13.80;9.48;;;20.00;99.90;;;;;;4956948;28;20188;-79
2021/07/16 01:32:02;;;;;;;17.30;10.43;;;20.00;99.90;;;;;;4959019;28;20624;-78
2021/07/16 01:34:28;;;;;;;13.88;9.43;;;20.00;99.90;;;;;;4957389;28;20205;-78
2021/07/16 01:36:54;;;;;;;14.65;9.85;;;19.90;99.90;;;;;;4957143;28;20205;-79
2021/07/16 01:39:20;;;;;;;17.00;10.20;;;19.90;99.90;;;;;;4956215;28;20192;-78
2021/07/16 01:41:45;;;;;;;15.65;9.98;;;19.90;99.90;;;;;;4957388;28;20851;-78
2021/07/16 01:44:11;;;;;;;20.45;11.52;;;19.90;99.90;;;;;;4956398;28;20189;-77
2021/07/16 01:46:37;;;;;;;15.68;9.77;;;20.00;99.90;;;;;;4957128;28;20293;-78
2021/07/16 01:49:04;;;;;;;16.23;10.43;;;19.90;99.90;;;;;;4948425;28;20189;-79
2021/07/16 01:51:30;;;;;;;20.95;11.50;;;19.90;99.90;;;;;;4958637;28;20192;-79
2021/07/16 01:53:58;;;;;;;17.80;11.18;;;19.90;99.90;;;;;;4964131;28;20693;-79
2021/07/16 01:56:24;;;;;;;19.98;11.77;;;19.80;99.90;;;;;;4957469;28;20188;-78
2021/07/16 01:58:49;;;;;;;16.20;10.52;;;19.80;99.90;;;;;;4955551;28;20584;-78
2021/07/16 02:01:16;;;;;;;19.77;12.00;;;19.80;99.90;;;;;;4956822;28;20241;-77
2021/07/16 02:03:45;;;;;;;19.15;12.30;;;19.80;99.90;;;;;;4964127;28;20196;-78
2021/07/16 02:06:13;;;;;;;20.02;11.35;;;19.80;99.90;;;;;;4956995;28;20789;-79
2021/07/16 02:08:40;;;;;;;20.15;11.35;;;19.80;99.90;;;;;;4955959;28;20201;-78
2021/07/16 02:11:06;;;;;;;20.48;10.98;;;19.90;99.90;;;;;;4957255;28;20181;-78
2021/07/16 02:13:32;;;;;;;16.70;11.13;;;19.90;99.90;;;;;;4958125;28;20199;-78
2021/07/16 02:15:58;;;;;;;17.95;10.30;;;19.90;99.90;;;;;;4956169;28;20700;-78
2021/07/16 02:18:23;;;;;;;19.02;9.40;;;19.80;99.90;;;;;;4956946;28;20296;-77
2021/07/16 02:20:50;;;;;;;16.58;10.60;;;19.80;99.90;;;;;;4957928;28;20213;-77
2021/07/16 02:23:27;;;;;;;15.18;8.88;;;19.80;99.90;;;;;;4957776;28;20185;-78
2021/07/16 02:25:53;;;;;;;15.55;8.93;;;19.80;99.90;;;;;;4964284;28;20181;-78
2021/07/16 02:28:25;;;;;;;13.13;8.95;;;19.70;99.90;;;;;;4947496;28;20760;-78
2021/07/16 02:30:52;;;;;;;14.32;8.57;;;19.70;99.90;;;;;;4956436;28;20251;-78
2021/07/16 02:33:17;;;;;;;12.73;8.35;;;19.70;99.90;;;;;;4957616;28;20232;-78
2021/07/16 02:35:47;;;;;;;16.15;8.32;;;19.70;99.90;;;;;;4956716;28;20186;-79
2021/07/16 02:38:13;;;;;;;11.15;8.07;;;19.70;99.90;;;;;;4956391;28;20208;-78
2021/07/16 02:40:41;;;;;;;12.50;8.00;;;19.60;99.90;;;;;;4955865;28;20261;-79
2021/07/16 02:43:08;;;;;;;12.35;7.60;;;19.60;99.90;;;;;;4956846;28;20332;-79
2021/07/16 02:45:34;;;;;;;9.20;6.28;;;19.60;99.90;;;;;;4957367;28;21168;-78
2021/07/16 02:48:00;;;;;;;11.43;7.22;;;19.50;99.90;;;;;;4946902;28;20220;-78
2021/07/16 02:50:27;;;;;;;13.15;8.02;;;19.50;99.90;;;;;;4957131;28;20197;-78
2021/07/16 02:52:53;;;;;;;12.60;7.32;;;19.40;99.90;;;;;;4957983;28;20580;-77
2021/07/16 02:55:19;;;;;;;9.50;7.28;;;19.40;99.90;;;;;;4956324;28;20261;-78
2021/07/16 02:57:45;;;;;;;9.68;6.55;;;19.50;99.90;;;;;;4955425;28;20198;-79
2021/07/16 03:00:15;;;;;;;9.45;5.88;;;19.40;99.90;;;;;;4955748;28;20190;-77
2021/07/16 03:02:42;;;;;;;11.65;6.97;;;19.40;99.90;;;;;;4955807;28;20192;-79
2021/07/16 03:05:15;;;;;;;8.60;6.40;;;19.40;99.90;;;;;;4957196;28;20569;-78
2021/07/16 03:07:40;;;;;;;9.35;6.32;;;19.40;99.90;;;;;;4956353;28;20212;-78
2021/07/16 03:10:08;;;;;;;10.00;6.68;;;19.40;99.90;;;;;;4955126;28;20193;-79
2021/07/16 03:12:35;;;;;;;10.57;6.93;;;19.40;99.90;;;;;;4957435;28;20184;-79
2021/07/16 03:15:04;;;;;;;10.68;6.63;;;19.30;99.90;;;;;;4954870;28;20264;-77
2021/07/16 03:17:30;;;;;;;11.55;6.75;;;19.30;99.90;;;;;;4956693;28;20214;-77
2021/07/16 03:19:55;;;;;;;10.20;6.18;;;19.30;99.90;;;;;;4955976;28;20598;-82
2021/07/16 03:22:21;;;;;;;9.90;6.93;;;19.20;99.90;;;;;;4947173;28;20231;-76
2021/07/16 03:24:46;;;;;;;11.60;5.85;;;19.30;99.90;;;;;;4954733;28;20189;-77
2021/07/16 03:27:12;;;;;;;10.40;5.88;;;19.30;99.90;;;;;;4954457;28;20209;-77
2021/07/16 03:29:37;;;;;;;8.32;5.43;;;19.30;99.90;;;;;;4953226;28;20547;-77
2021/07/16 03:32:03;;;;;;;7.22;5.25;;;19.30;99.90;;;;;;4955596;28;20185;-78
2021/07/16 03:34:29;;;;;;;10.55;6.20;;;19.30;99.90;;;;;;4958907;28;20221;-77
2021/07/16 03:36:54;;;;;;;6.30;5.07;;;19.20;99.90;;;;;;4960064;28;20211;-76
2021/07/16 03:39:20;;;;;;;7.15;5.28;;;19.20;99.90;;;;;;4958603;28;20339;-77
2021/07/16 03:41:46;;;;;;;10.00;5.78;;;19.20;99.90;;;;;;4960162;28;20208;-77
2021/07/16 03:44:11;;;;;;;8.75;4.57;;;19.20;99.90;;;;;;4950128;28;20186;-78
2021/07/16 03:46:37;;;;;;;12.18;4.85;;;19.20;99.90;;;;;;4949824;28;20197;-76
2021/07/16 03:49:03;;;;;;;6.35;4.47;;;19.30;99.90;;;;;;4959517;28;20726;-77
2021/07/16 03:51:29;;;;;;;6.03;4.60;;;19.30;99.90;;;;;;4958950;28;20668;-77
2021/07/16 03:53:54;;;;;;;5.60;4.65;;;19.20;99.90;;;;;;4959415;28;20199;-77
2021/07/16 03:56:20;;;;;;;9.32;6.00;;;19.30;99.90;;;;;;4957080;28;20185;-76
2021/07/16 03:58:46;;;;;;;7.15;4.93;;;19.30;99.90;;;;;;4959095;28;20190;-76
2021/07/16 04:01:13;;;;;;;6.53;4.70;;;19.30;99.90;;;;;;4955970;28;20730;-77
2021/07/16 04:03:39;;;;;;;5.60;4.45;;;19.20;99.90;;;;;;4958970;28;20956;-77
2021/07/16 04:06:04;;;;;;;8.07;5.68;;;19.30;99.90;;;;;;4957547;28;20189;-77
2021/07/16 04:08:34;;;;;;;7.93;6.05;;;19.30;99.90;;;;;;4957526;28;20204;-77
2021/07/16 04:11:00;;;;;;;8.70;5.43;;;19.30;99.90;;;;;;4961260;28;20224;-77
2021/07/16 04:13:25;;;;;;;7.55;5.15;;;19.30;99.90;;;;;;4958957;28;20189;-77
2021/07/16 04:15:51;;;;;;;9.40;5.25;;;19.30;99.90;;;;;;4959257;28;20194;-77
2021/07/16 04:18:16;;;;;;;8.52;5.65;;;19.20;99.90;;;;;;4956624;28;20216;-77
2021/07/16 04:20:42;;;;;;;7.07;5.25;;;19.20;99.90;;;;;;4960965;28;20189;-77
2021/07/16 04:23:08;;;;;;;8.95;5.25;;;19.20;99.90;;;;;;4958492;28;20181;-77
2021/07/16 04:25:34;;;;;;;7.30;5.50;;;19.20;99.90;;;;;;4958480;28;20186;-76
2021/07/16 04:28:06;;;;;;;7.78;4.85;;;19.20;99.90;;;;;;4957600;28;20670;-77
2021/07/16 04:30:32;;;;;;;10.07;5.30;;;19.20;99.90;;;;;;4958095;28;20165;-76
2021/07/16 04:33:01;;;;;;;6.57;4.82;;;19.20;99.90;;;;;;4958286;28;20182;-77
2021/07/16 04:35:28;;;;;;;7.05;4.97;;;19.30;99.90;;;;;;4958168;28;20188;-77
2021/07/16 04:37:54;;;;;;;8.45;5.53;;;19.20;99.90;;;;;;4955669;28;20645;-78
2021/07/16 04:40:22;;;;;;;8.18;5.85;;;19.30;99.90;;;;;;4949014;28;20186;-77
2021/07/16 04:42:49;;;;;;;8.70;5.25;;;19.30;99.90;;;;;;4957602;28;20995;-77
2021/07/16 04:45:15;;;;;;;8.10;5.63;;;19.20;99.90;;;;;;4958879;28;20218;-78
2021/07/16 04:47:41;;;;;;;7.32;4.60;;;19.20;99.90;;;;;;4957416;28;20231;-77
2021/07/16 04:50:07;;;;;;;8.70;5.43;;;19.20;99.90;;;;;;4958298;28;20217;-77
2021/07/16 04:52:42;;;;;;;5.32;3.97;;;19.20;99.90;;;;;;4959056;28;20177;-77
2021/07/16 04:55:09;;;;;;;9.27;5.15;;;19.20;99.90;;;;;;4958133;28;20224;-77
2021/07/16 04:57:34;;;;;;;7.13;4.03;;;19.20;99.90;;;;;;4957727;28;20703;-78
2021/07/16 05:00:00;;;;;;;6.78;4.53;;;19.20;99.90;;;;;;4958472;28;20185;-77
2021/07/16 05:02:25;;;;;;;8.63;5.45;;;19.30;99.90;;;;;;4958616;28;20251;-77
2021/07/16 05:04:51;;;;;;;7.40;5.20;;;19.30;99.90;;;;;;4949551;28;20210;-76
2021/07/16 05:07:17;;;;;;;7.95;4.50;;;19.30;99.90;;;;;;4956223;28;20211;-78
2021/07/16 05:09:43;;;;;;;7.78;4.30;;;19.20;99.90;;;;;;4958396;28;21159;-76
2021/07/16 05:12:09;;;;;;;5.63;3.72;;;19.30;99.90;;;;;;4949100;28;20178;-77
2021/07/16 05:14:35;;;;;;;5.43;4.05;;;19.30;99.90;;;;;;4958405;28;20695;-77
2021/07/16 05:17:00;;;;;;;6.88;4.78;;;19.40;99.90;;;;;;4959290;28;20200;-77
2021/07/16 05:19:26;;;;;;;7.03;4.45;;;19.40;99.90;;;;;;4958651;28;20621;-79
2021/07/16 05:21:52;;;;;;;5.50;3.58;;;19.30;99.90;;;;;;4960669;28;20205;-78
2021/07/16 05:24:17;;;;;;;5.78;4.15;;;19.40;99.90;;;;;;4967228;28;20193;-77
2021/07/16 05:26:43;;;;;;;6.78;4.20;;;19.40;99.90;;;;;;4958690;28;20290;-77
2021/07/16 05:29:09;;;;;;;6.00;4.25;;;19.60;99.90;;;;;;4961923;28;20244;-77
2021/07/16 05:31:34;;;;;;;6.20;3.97;;;19.50;99.90;;;;;;4954580;28;20182;-77
2021/07/16 05:34:00;;;;;;;6.85;4.30;;;19.50;99.90;;;;;;4951038;28;20184;-77
2021/07/16 05:36:25;;;;;;;8.57;3.97;;;19.40;99.90;;;;;;4956614;28;20555;-78
2021/07/16 05:38:52;;;;;;;5.53;4.05;;;19.40;99.90;;;;;;4959408;28;20674;-78
2021/07/16 05:41:18;;;;;;;6.32;4.50;;;19.40;99.90;;;;;;4952107;28;20197;-78
2021/07/16 05:43:43;;;;;;;5.97;4.30;;;19.40;99.90;;;;;;4950633;28;20185;-77
2021/07/16 05:46:09;;;;;;;8.90;4.90;;;19.40;99.90;;;;;;4944476;28;20197;-79
2021/07/16 05:48:36;;;;;;;4.88;3.90;;;19.40;99.90;;;;;;4949573;28;20197;-78
2021/07/16 05:51:01;;;;;;;7.10;4.13;;;19.40;99.90;;;;;;4955906;28;20654;-77
2021/07/16 05:53:28;;;;;;;6.80;4.05;;;19.40;99.90;;;;;;4945235;28;20197;-78
2021/07/16 05:55:54;;;;;;;6.25;4.35;;;19.40;99.90;;;;;;4948620;28;20224;-77
2021/07/16 05:58:19;;;;;;;9.68;4.68;;;19.40;99.90;;;;;;4948656;28;20633;-79
2021/07/16 06:00:45;;;;;;;6.97;4.10;;;19.40;99.90;;;;;;4945306;28;20185;-78
2021/07/16 06:03:11;;;;;;;7.40;4.32;;;19.40;99.90;;;;;;4945435;28;20683;-77
2021/07/16 06:05:37;;;;;;;6.13;4.25;;;19.50;99.90;;;;;;4956279;28;20279;-77
2021/07/16 06:08:04;;;;;;;6.65;4.80;;;19.40;99.90;;;;;;4972846;28;20287;-77
2021/07/16 06:10:30;;;;;;;5.80;4.20;;;19.30;99.90;;;;;;4965790;28;20255;-78
2021/07/16 06:12:56;;;;;;;5.93;4.72;;;19.30;99.90;;;;;;4959954;28;20193;-77
2021/07/16 06:15:22;;;;;;;9.05;5.65;;;19.40;99.90;;;;;;4957569;28;20177;-77
2021/07/16 06:17:49;;;;;;;8.85;6.25;;;19.30;99.90;;;;;;4949849;28;20371;-77
2021/07/16 06:20:15;;;;;;;11.10;5.68;;;19.30;99.90;;;;;;4949417;28;20184;-78
2021/07/16 06:22:44;;;;;;;11.07;5.43;;;19.30;99.90;;;;;;4957766;28;20201;-79
2021/07/16 06:25:11;;;;;;;10.55;5.53;;;19.30;99.90;;;;;;4955573;28;20193;-77
2021/07/16 06:27:38;;;;;;;12.00;5.30;;;19.30;99.90;;;;;;4955023;28;20441;-77
2021/07/16 06:30:05;;;;;;;9.65;5.95;;;19.30;99.90;;;;;;4947949;28;20180;-78
2021/07/16 06:32:30;;;;;;;7.80;5.05;;;19.40;99.90;;;;;;4953655;28;20190;-78
2021/07/16 06:34:56;;;;;;;8.77;5.30;;;19.40;99.90;;;;;;4943309;28;20694;-77
2021/07/16 06:37:22;;;;;;;8.15;5.03;;;19.40;99.90;;;;;;4953100;28;20255;-76
2021/07/16 06:39:47;;;;;;;11.25;4.78;;;19.40;99.90;;;;;;4943131;28;20252;-77
2021/07/16 06:42:13;;;;;;;7.35;5.40;;;19.40;99.90;;;;;;4951155;28;20233;-78
2021/07/16 06:44:38;;;;;;;11.90;6.18;;;19.40;99.90;;;;;;4942607;28;20536;-77
2021/07/16 06:47:04;;;;;;;12.32;5.90;;;19.40;99.90;;;;;;4945352;28;20208;-77
2021/07/16 06:49:30;;;;;;;8.25;5.15;;;19.40;99.90;;;;;;4954650;28;20185;-77
2021/07/16 06:51:57;;;;;;;9.48;5.35;;;19.40;99.90;;;;;;4949356;28;20251;-77
2021/07/16 06:54:24;;;;;;;8.93;6.13;;;19.30;99.90;;;;;;4944662;28;20181;-76
2021/07/16 06:56:50;;;;;;;9.02;5.45;;;19.30;99.90;;;;;;4948536;28;20556;-77
2021/07/16 06:59:16;;;;;;;8.43;5.45;;;19.20;99.90;;;;;;4946933;28;20598;-77
2021/07/16 07:01:41;;;;;;;11.48;5.63;;;19.20;99.90;;;;;;4947057;28;20944;-76
2021/07/16 07:04:07;;;;;;;12.52;5.70;;;19.30;99.90;;;;;;4951054;28;20197;-76
2021/07/16 07:06:33;;;;;;;9.15;5.55;;;19.40;99.90;;;;;;4943671;28;20687;-76
2021/07/16 07:08:59;;;;;;;12.32;5.88;;;19.50;99.90;;;;;;4948720;28;20177;-77
2021/07/16 07:11:24;;;;;;;10.27;6.30;;;19.60;99.90;;;;;;4954041;28;20181;-77
2021/07/16 07:13:50;;;;;;;13.02;5.95;;;19.70;99.90;;;;;;4950266;28;20211;-77
2021/07/16 07:16:16;;;;;;;11.48;6.47;;;19.60;99.90;;;;;;4949281;28;20233;-77
2021/07/16 07:18:43;;;;;;;8.80;6.00;;;19.70;99.90;;;;;;4949865;28;20177;-77
2021/07/16 07:21:09;;;;;;;12.23;5.80;;;19.70;99.90;;;;;;4950498;28;20703;-78
2021/07/16 07:23:35;;;;;;;6.55;4.97;;;19.70;99.90;;;;;;4950900;28;20181;-78
2021/07/16 07:26:01;;;;;;;9.20;5.43;;;19.60;99.90;;;;;;4954343;28;20186;-78
2021/07/16 07:28:26;;;;;;;9.38;5.05;;;19.60;99.90;;;;;;4946163;28;20391;-78
2021/07/16 07:30:52;;;;;;;9.23;5.13;;;19.50;99.90;;;;;;4947309;28;20185;-79
2021/07/16 07:33:17;;;;;;;8.25;5.13;;;19.50;99.90;;;;;;4947040;28;20639;-78
2021/07/16 07:35:43;;;;;;;6.43;4.32;;;19.60;99.90;;;;;;4951247;28;20183;-80
2021/07/16 07:38:09;;;;;;;7.82;4.72;;;19.70;99.90;;;;;;4944103;28;20506;-78
2021/07/16 07:40:34;;;;;;;8.15;5.25;;;19.80;99.90;;;;;;4949241;28;20181;-78
2021/07/16 07:43:01;;;;;;;7.32;4.82;;;19.80;99.90;;;;;;4946586;28;20596;-78
2021/07/16 07:45:27;;;;;;;8.80;5.25;;;19.90;99.90;;;;;;4946622;28;20430;-78
2021/07/16 07:47:53;;;;;;;9.07;4.57;;;19.90;99.90;;;;;;4955909;28;20267;-79
2021/07/16 07:50:20;;;;;;;7.70;4.28;;;19.90;99.90;;;;;;4941764;28;20177;-78
2021/07/16 07:52:50;;;;;;;5.75;4.07;;;20.00;99.90;;;;;;4945858;28;20570;-78
2021/07/16 07:55:18;;;;;;;6.78;3.50;;;20.00;99.90;;;;;;4950636;28;20328;-78
2021/07/16 07:57:44;;;;;;;7.38;4.28;;;19.90;99.90;;;;;;4948115;28;20197;-78
2021/07/16 08:00:12;;;;;;;6.88;4.25;;;20.00;99.90;;;;;;4941558;28;20194;-78
2021/07/16 08:02:39;;;;;;;6.85;4.22;;;19.90;99.90;;;;;;4948549;28;20928;-78
2021/07/16 08:05:05;;;;;;;4.80;4.20;;;19.80;99.90;;;;;;4954713;28;20284;-79
2021/07/16 08:07:31;;;;;;;6.22;4.32;;;20.10;99.90;;;;;;4952853;28;20859;-79
2021/07/16 08:09:56;;;;;;;9.93;5.25;;;20.20;99.90;;;;;;4943957;28;20192;-80
2021/07/16 08:12:22;;;;;;;9.90;5.93;;;20.30;99.90;;;;;;4945376;28;20189;-78
2021/07/16 08:14:47;;;;;;;16.27;7.75;;;20.20;99.90;;;;;;4954997;28;20465;-78
2021/07/16 08:17:13;;;;;;;17.63;9.40;;;20.10;99.90;;;;;;4943630;28;20584;-77
2021/07/16 08:19:39;;;;;;;16.80;9.00;;;20.10;99.90;;;;;;4953232;28;20194;-80
2021/07/16 08:22:04;;;;;;;16.02;10.63;;;20.10;99.90;;;;;;4952299;28;20377;-78
2021/07/16 08:24:30;;;;;;;17.88;10.27;;;20.10;99.90;;;;;;4946646;28;20182;-78
2021/07/16 08:26:56;;;;;;;25.20;10.70;;;20.10;99.90;;;;;;4952612;28;20205;-79
2021/07/16 08:29:21;;;;;;;14.35;8.88;;;20.20;99.90;;;;;;4957350;28;20189;-78
2021/07/16 08:31:47;;;;;;;16.65;10.35;;;20.40;99.90;;;;;;4953885;28;20273;-77
2021/07/16 08:34:16;;;;;;;14.88;9.13;;;20.50;99.90;;;;;;4950409;28;20189;-78
2021/07/16 08:36:42;;;;;;;13.13;8.85;;;20.40;99.90;;;;;;4945009;28;20296;-78
2021/07/16 08:39:07;;;;;;;15.25;9.10;;;20.40;99.90;;;;;;4951952;28;20194;-79
2021/07/16 08:41:34;;;;;;;18.20;8.60;;;20.60;99.90;;;;;;4960630;28;20255;-78
2021/07/16 08:44:00;;;;;;;14.85;7.95;;;20.50;99.90;;;;;;4950022;28;20185;-79
2021/07/16 08:46:25;;;;;;;15.57;9.20;;;20.50;99.90;;;;;;4952540;28;20207;-77
2021/07/16 08:48:51;;;;;;;17.23;9.70;;;20.60;99.90;;;;;;4954731;28;20185;-78
2021/07/16 08:51:19;;;;;;;14.73;9.02;;;20.50;99.90;;;;;;4952775;28;20198;-77
2021/07/16 08:53:48;;;;;;;16.35;9.25;;;20.50;99.90;;;;;;4962756;28;20189;-78
2021/07/16 08:56:15;;;;;;;14.68;9.30;;;20.60;99.90;;;;;;4952176;28;20949;-77
2021/07/16 08:58:41;;;;;;;12.95;7.53;;;20.70;99.90;;;;;;4955792;28;20208;-77
2021/07/16 09:01:06;;;;;;;13.25;6.65;;;20.80;99.90;;;;;;4953665;28;20228;-76
2021/07/16 09:03:32;;;;;;;12.60;6.38;;;20.80;99.90;;;;;;4948412;28;20190;-76
2021/07/16 09:05:59;;;;;;;9.40;5.45;;;20.70;99.90;;;;;;4947915;28;20204;-78
2021/07/16 09:08:26;;;;;;;8.80;6.10;;;20.80;99.90;;;;;;4963522;28;20235;-79
2021/07/16 09:10:58;;;;;;;12.60;6.78;;;21.00;99.90;;;;;;4953541;28;20190;-77
2021/07/16 09:13:26;;;;;;;11.32;6.15;;;21.20;99.90;;;;;;4960044;28;20236;-76
2021/07/16 09:16:02;;;;;;;11.52;7.22;;;21.30;99.90;;;;;;4958689;28;20184;-77
2021/07/16 09:18:30;;;;;;;14.18;8.18;;;21.50;99.90;;;;;;4954858;28;20221;-77
2021/07/16 09:21:02;;;;;;;14.20;6.97;;;21.60;99.90;;;;;;4954764;28;20180;-79
2021/07/16 09:23:42;;;;;;;9.38;7.20;;;21.50;99.90;;;;;;4952830;28;20190;-76
2021/07/16 09:26:13;;;;;;;11.13;6.60;;;21.30;99.90;;;;;;4950589;28;20279;-78
2021/07/16 09:28:44;;;;;;;13.65;7.22;;;21.30;99.90;;;;;;4953123;28;20670;-77
2021/07/16 09:31:14;;;;;;;14.57;8.38;;;21.10;99.90;;;;;;4946841;28;20213;-77
2021/07/16 09:33:49;;;;;;;13.32;8.25;;;21.10;99.90;;;;;;4950051;28;20249;-77
2021/07/16 09:36:30;;;;;;;16.85;9.30;;;21.10;99.90;;;;;;4948842;28;20427;-77
2021/07/16 09:39:16;;;;;;;12.18;8.23;;;21.20;99.90;;;;;;4946807;28;20415;-77
2021/07/16 09:41:53;;;;;;;14.30;9.48;;;21.30;99.90;;;;;;4949875;28;20366;-79
2021/07/16 09:44:38;;;;;;;17.30;9.32;;;21.50;99.90;;;;;;4948725;28;20178;-78
2021/07/16 09:47:13;;;;;;;12.90;8.18;;;21.70;99.90;;;;;;4945350;28;20297;-77
2021/07/16 09:49:41;;;;;;;14.20;8.80;;;21.80;99.90;;;;;;4951320;28;20276;-76
2021/07/16 09:52:16;;;;;;;18.58;11.15;;;22.10;99.90;;;;;;4952492;28;20958;-76
2021/07/16 09:55:14;;;;;;;15.00;8.73;;;22.20;99.90;;;;;;4953686;28;20190;-77
2021/07/16 09:57:47;;;;;;;19.15;10.45;;;22.30;99.90;;;;;;4961010;28;20320;-77
2021/07/16 10:00:25;;;;;;;15.63;9.13;;;22.30;99.90;;;;;;4958020;28;20473;-77
2021/07/16 10:02:56;;;;;;;13.05;8.88;;;22.10;99.90;;;;;;4950772;28;20221;-75
2021/07/16 10:05:23;;;;;;;14.55;8.73;;;22.00;99.90;;;;;;4959865;28;20576;-76
2021/07/16 10:07:50;;;;;;;14.07;9.20;;;21.90;99.90;;;;;;4955877;28;20201;-77
2021/07/16 10:10:18;;;;;;;13.52;9.13;;;22.00;99.90;;;;;;4945621;28;20186;-76
2021/07/16 10:12:46;;;;;;;12.85;8.52;;;22.20;99.90;;;;;;4954015;28;20190;-76
2021/07/16 10:15:16;;;;;;;16.55;9.00;;;22.20;99.90;;;;;;4948716;28;20212;-77
2021/07/16 10:17:42;;;;;;;12.82;9.02;;;22.40;99.90;;;;;;4946863;28;20209;-78
2021/07/16 10:20:14;;;;;;;12.15;7.97;;;22.40;99.90;;;;;;4955525;28;20486;-78
2021/07/16 10:22:41;;;;;;;13.75;8.13;;;22.40;99.90;;;;;;4944629;28;20313;-77
2021/07/16 10:25:08;;;;;;;11.80;8.30;;;22.40;99.90;;;;;;4946954;28;20426;-77
2021/07/16 10:27:34;;;;;;;10.80;6.82;;;22.50;99.90;;;;;;4946493;28;20271;-77
2021/07/16 10:30:09;;;;;;;15.52;8.90;;;22.50;99.90;;;;;;4953199;28;20184;-78
2021/07/16 10:32:50;;;;;;;12.63;7.13;;;22.70;99.90;;;;;;4944873;28;20204;-77
2021/07/16 10:35:18;;;;;;;13.70;8.10;;;22.60;99.90;;;;;;4944098;28;20190;-78
2021/07/16 10:37:45;;;;;;;15.13;8.90;;;22.60;99.90;;;;;;4955131;28;20200;-76
2021/07/16 10:40:34;;;;;;;15.80;9.32;;;22.70;99.90;;;;;;4951002;28;20204;-77
2021/07/16 10:43:00;;;;;;;16.83;10.05;;;22.90;99.90;;;;;;4945506;28;20992;-77
2021/07/16 10:45:34;;;;;;;12.98;8.48;;;23.20;99.90;;;;;;4944393;28;20268;-76
2021/07/16 10:48:11;;;;;;;12.23;8.38;;;23.40;99.90;;;;;;4950661;28;20348;-77
2021/07/16 10:50:39;;;;;;;15.88;9.45;;;23.50;99.90;;;;;;4952637;28;20220;-78
2021/07/16 10:53:12;;;;;;;18.73;9.05;;;23.60;99.90;;;;;;4950651;28;20484;-77
2021/07/16 10:55:38;;;;;;;13.52;8.18;;;23.60;99.90;;;;;;4952483;28;20926;-75
2021/07/16 10:58:21;;;;;;;9.60;6.60;;;23.60;99.90;;;;;;4948477;28;20197;-75
2021/07/16 11:00:51;;;;;;;11.00;6.60;;;23.40;99.90;;;;;;4942450;28;20181;-77
2021/07/16 11:03:19;;;;;;;10.13;6.13;;;23.20;99.90;;;;;;4941954;28;20312;-77
2021/07/16 11:05:45;;;;;;;10.43;7.03;;;23.10;99.90;;;;;;4947237;28;20260;-76
2021/07/16 11:08:37;;;;;;;13.27;7.55;;;23.20;99.90;;;;;;4952110;28;20201;-76
2021/07/16 11:11:04;;;;;;;11.75;7.22;;;23.30;99.90;;;;;;4943296;28;20184;-76
2021/07/16 11:13:35;;;;;;;10.73;6.45;;;23.40;99.90;;;;;;4945927;28;20186;-77
2021/07/16 11:16:32;;;;;;;12.90;6.78;;;23.30;99.90;;;;;;4948311;28;20624;-74
2021/07/16 11:19:04;;;;;;;10.85;6.70;;;23.20;99.90;;;;;;4953263;28;20280;-76
2021/07/16 11:21:39;;;;;;;11.75;6.57;;;23.10;99.90;;;;;;4944018;28;20293;-74
2021/07/16 11:24:27;;;;;;;15.25;8.90;;;23.20;99.90;;;;;;4948134;28;20962;-75
2021/07/16 11:27:08;;;;;;;12.63;8.32;;;23.10;99.90;;;;;;4945606;28;20743;-75
2021/07/16 11:29:39;;;;;;;15.02;7.32;;;23.10;99.90;;;;;;4942599;28;20614;-75
2021/07/16 11:32:20;;;;;;;11.45;7.25;;;23.00;99.90;;;;;;4950165;28;20197;-75
2021/07/16 11:34:48;;;;;;;11.88;8.80;;;23.20;99.90;;;;;;4943571;28;20699;-76
2021/07/16 11:37:26;;;;;;;15.35;9.05;;;23.40;99.90;;;;;;4940551;28;20212;-74
2021/07/16 11:40:00;;;;;;;13.50;8.25;;;23.60;99.90;;;;;;4954679;28;20185;-76
2021/07/16 11:42:27;;;;;;;13.32;8.98;;;23.70;99.90;;;;;;4957988;28;20205;-75
2021/07/16 11:44:53;;;;;;;15.20;9.13;;;23.80;99.90;;;;;;4945989;28;20192;-75
2021/07/16 11:47:20;;;;;;;16.08;8.63;;;23.80;99.90;;;;;;4951317;28;20393;-76
2021/07/16 11:49:48;;;;;;;10.00;6.90;;;23.70;99.90;;;;;;4941502;28;20244;-77
2021/07/16 11:52:23;;;;;;;12.55;7.25;;;23.90;99.90;;;;;;4950613;28;20664;-75
2021/07/16 11:54:54;;;;;;;12.40;8.73;;;24.20;99.90;;;;;;4954435;28;20279;-76
2021/07/16 11:57:20;;;;;;;17.40;8.73;;;24.10;99.90;;;;;;4948795;28;20208;-78
2021/07/16 11:59:51;;;;;;;14.93;8.18;;;24.00;99.90;;;;;;4950410;28;20671;-78
2021/07/16 12:02:21;;;;;;;9.25;6.03;;;23.90;99.90;;;;;;4952297;28;20603;-76
2021/07/16 12:04:48;;;;;;;9.10;6.13;;;24.00;99.90;;;;;;4952713;28;20201;-77
2021/07/16 12:07:16;;;;;;;14.88;6.88;;;24.20;99.90;;;;;;4954014;28;20208;-77
2021/07/16 12:09:46;;;;;;;12.65;5.68;;;24.20;99.90;;;;;;4959164;28;20188;-78
2021/07/16 12:12:16;;;;;;;7.20;5.82;;;24.00;99.90;;;;;;4956661;28;20200;-77
2021/07/16 12:14:58;;;;;;;11.10;6.47;;;24.20;99.90;;;;;;4958818;28;20552;-78
2021/07/16 12:17:52;;;;;;;11.75;6.97;;;24.20;99.90;;;;;;4950059;28;20678;-77
2021/07/16 12:20:29;;;;;;;11.00;6.43;;;23.90;99.90;;;;;;4961827;28;20197;-76
2021/07/16 12:22:56;;;;;;;10.80;6.50;;;24.10;99.90;;;;;;4957816;28;20449;-77
2021/07/16 12:25:22;;;;;;;12.88;5.95;;;24.00;99.90;;;;;;4955569;28;20192;-77
2021/07/16 12:28:05;;;;;;;15.77;7.18;;;24.00;99.90;;;;;;4958262;28;20208;-79
2021/07/16 12:30:31;;;;;;;10.63;6.35;;;24.00;99.90;;;;;;4954901;28;20177;-76
2021/07/16 12:33:02;;;;;;;8.10;5.97;;;24.20;99.90;;;;;;4955730;28;20673;-76
2021/07/16 12:35:28;;;;;;;10.00;5.85;;;24.20;99.90;;;;;;4955019;28;20263;-78
2021/07/16 12:38:07;;;;;;;9.65;6.47;;;24.10;99.90;;;;;;4956931;28;21240;-78
2021/07/16 12:40:33;;;;;;;8.98;5.88;;;24.20;99.90;;;;;;4958401;28;20189;-77
2021/07/16 12:43:21;;;;;;;12.95;6.47;;;24.30;99.90;;;;;;4955746;28;20443;-77
2021/07/16 12:45:55;;;;;;;12.18;6.43;;;24.40;99.90;;;;;;4958839;28;20733;-79